createdAt,value
2023-01-28T00:01:39.412Z,59.86
2023-01-28T00:04:07.857Z,59.11
2023-01-28T00:06:36.251Z,59.20
2023-01-28T00:09:04.864Z,58.77
2023-01-28T00:11:34.339Z,60.62
2023-01-28T00:14:04.812Z,60.18
2023-01-28T00:16:33.201Z,60.16
2023-01-28T00:19:02.875Z,60.02
2023-01-28T00:21:31.418Z,58.87
2023-01-28T00:23:59.745Z,59.34
2023-01-28T00:26:28.419Z,57.95
2023-01-28T00:28:57.117Z,58.86
2023-01-28T00:31:27.643Z,59.64
2023-01-28T00:33:57.439Z,58.49
2023-01-28T00:36:28.383Z,57.27
2023-01-28T00:38:58.197Z,57.35
2023-01-28T00:41:28.732Z,59.45
2023-01-28T00:44:02.025Z,58.20
2023-01-28T00:46:31.061Z,58.03
2023-01-28T00:48:59.885Z,58.13
2023-01-28T00:51:29.632Z,57.28
2023-01-28T00:53:58.147Z,58.88
2023-01-28T00:56:26.558Z,60.21
2023-01-28T00:58:55.070Z,59.59
2023-01-28T01:01:25.291Z,61.55
2023-01-28T01:03:57.847Z,60.34
2023-01-28T01:06:27.046Z,60.52
2023-01-28T01:08:57.083Z,58.99
2023-01-28T01:11:25.973Z,61.17
2023-01-28T01:13:57.144Z,60.18
2023-01-28T01:16:28.238Z,60.10
2023-01-28T01:18:57.649Z,61.65
2023-01-28T01:21:28.669Z,62.64
2023-01-28T01:23:58.963Z,60.96
2023-01-28T01:26:27.588Z,62.75
2023-01-28T01:28:56.585Z,61.21
2023-01-28T01:31:25.043Z,63.25
2023-01-28T01:33:54.313Z,62.20
2023-01-28T01:36:23.971Z,62.33
2023-01-28T01:38:55.116Z,62.90
2023-01-28T01:41:31.160Z,63.35
2023-01-28T01:44:01.379Z,64.83
2023-01-28T01:46:35.863Z,63.34
2023-01-28T01:49:14.382Z,62.95
2023-01-28T01:51:44.592Z,63.24
2023-01-28T01:54:13.442Z,64.83
2023-01-28T01:56:46.169Z,63.39
2023-01-28T01:59:19.115Z,62.56
2023-01-28T02:01:47.704Z,63.16
2023-01-28T02:04:23.934Z,64.71
2023-01-28T02:06:54.280Z,63.96
2023-01-28T02:09:25.051Z,62.08
2023-01-28T02:11:58.651Z,60.78
2023-01-28T02:14:31.929Z,60.26
2023-01-28T02:17:02.061Z,60.08
2023-01-28T02:19:37.483Z,62.44
2023-01-28T02:22:25.317Z,62.01
2023-01-28T02:25:05.955Z,62.18
2023-01-28T02:27:41.430Z,61.07
2023-01-28T02:30:20.967Z,61.09
2023-01-28T02:32:56.653Z,61.33
2023-01-28T02:35:32.740Z,62.37
2023-01-28T02:38:07.273Z,61.66
2023-01-28T02:41:01.140Z,62.14
2023-01-28T02:43:34.802Z,60.26
2023-01-28T02:46:33.070Z,59.52
2023-01-28T02:49:01.520Z,59.88
2023-01-28T02:51:39.365Z,60.15
2023-01-28T02:54:13.620Z,60.64
2023-01-28T02:56:49.983Z,60.91
2023-01-28T02:59:34.463Z,62.37
2023-01-28T03:02:20.615Z,61.70
2023-01-28T03:04:55.858Z,58.50
2023-01-28T03:07:27.421Z,59.48
2023-01-28T03:09:59.304Z,60.49
2023-01-28T03:12:47.830Z,62.30
2023-01-28T03:15:36.880Z,61.05
2023-01-28T03:18:29.023Z,61.86
2023-01-28T03:21:23.316Z,60.48
2023-01-28T03:24:15.282Z,60.07
2023-01-28T03:27:06.550Z,57.90
2023-01-28T03:29:53.883Z,59.77
2023-01-28T03:32:41.299Z,59.46
2023-01-28T03:35:30.124Z,60.67
2023-01-28T03:38:00.352Z,59.53
2023-01-28T03:40:30.101Z,60.99
2023-01-28T03:42:58.526Z,61.38
2023-01-28T03:45:37.538Z,60.49
2023-01-28T03:48:07.107Z,58.27
2023-01-28T03:50:36.976Z,59.06
2023-01-28T03:53:16.516Z,58.87
2023-01-28T03:55:50.874Z,59.01
2023-01-28T03:58:20.323Z,57.75
2023-01-28T04:00:49.486Z,58.67
2023-01-28T04:03:20.572Z,58.77
2023-01-28T04:06:10.727Z,62.18
2023-01-28T04:08:55.076Z,60.62
2023-01-28T04:11:31.746Z,61.39
2023-01-28T04:14:03.375Z,62.23
2023-01-28T04:16:49.339Z,61.36
2023-01-28T04:19:18.708Z,60.37
2023-01-28T04:21:49.214Z,61.49
2023-01-28T04:24:18.460Z,60.21
2023-01-28T04:26:46.923Z,61.42
2023-01-28T04:29:17.505Z,63.84
2023-01-28T04:31:46.140Z,64.60
2023-01-28T04:34:40.597Z,62.36
2023-01-28T04:37:17.563Z,60.42
2023-01-28T04:40:07.668Z,61.52
2023-01-28T04:42:57.701Z,60.39
2023-01-28T04:45:46.408Z,61.85
2023-01-28T04:48:33.058Z,61.18
2023-01-28T04:51:17.237Z,61.51
2023-01-28T04:54:10.608Z,62.47
2023-01-28T04:56:39.617Z,62.42
2023-01-28T04:59:08.634Z,61.53
2023-01-28T05:01:37.238Z,61.17
2023-01-28T05:04:06.944Z,61.60
2023-01-28T05:06:39.941Z,60.40
2023-01-28T05:09:17.333Z,61.49
2023-01-28T05:11:45.746Z,62.90
2023-01-28T05:14:15.652Z,61.30
2023-01-28T05:16:51.682Z,60.99
2023-01-28T05:19:21.347Z,59.77
2023-01-28T05:21:49.749Z,61.61
2023-01-28T05:24:29.685Z,62.16
2023-01-28T05:26:57.997Z,62.52
2023-01-28T05:29:26.332Z,63.99
2023-01-28T05:31:55.204Z,60.94
2023-01-28T05:34:23.619Z,62.01
2023-01-28T05:36:53.002Z,63.91
2023-01-28T05:39:32.882Z,62.65
2023-01-28T05:42:01.346Z,62.52
2023-01-28T05:44:30.562Z,63.59
2023-01-28T05:47:19.358Z,63.63
2023-01-28T05:49:53.997Z,62.16
2023-01-28T05:52:57.758Z,61.05
2023-01-28T05:55:34.311Z,62.83
2023-01-28T05:58:02.796Z,62.85
2023-01-28T06:00:31.173Z,62.57
2023-01-28T06:03:00.922Z,63.52
2023-01-28T06:05:29.591Z,63.02
2023-01-28T06:07:57.995Z,63.66
2023-01-28T06:10:27.076Z,62.54
2023-01-28T06:12:57.978Z,61.52
2023-01-28T06:15:53.461Z,63.64
2023-01-28T06:18:27.292Z,62.09
2023-01-28T06:20:55.945Z,63.86
2023-01-28T06:23:24.403Z,63.43
2023-01-28T06:25:55.343Z,61.92
2023-01-28T06:28:27.051Z,63.69
2023-01-28T06:30:55.494Z,61.21
2023-01-28T06:33:24.718Z,62.89
2023-01-28T06:35:53.559Z,62.39
2023-01-28T06:38:21.864Z,61.28
2023-01-28T06:40:53.487Z,60.15
2023-01-28T06:43:21.856Z,60.71
2023-01-28T06:45:52.302Z,60.17
2023-01-28T06:48:21.014Z,63.16
2023-01-28T06:50:49.801Z,61.39
2023-01-28T06:53:19.470Z,60.92
2023-01-28T06:55:47.922Z,60.36
2023-01-28T06:58:16.685Z,63.19
2023-01-28T07:00:45.322Z,62.52
2023-01-28T07:03:16.224Z,62.04
2023-01-28T07:05:44.952Z,62.29
2023-01-28T07:08:13.484Z,62.37
2023-01-28T07:10:41.976Z,62.26
2023-01-28T07:13:10.647Z,63.59
2023-01-28T07:15:39.786Z,61.38
2023-01-28T07:18:08.165Z,59.91
2023-01-28T07:20:38.306Z,60.11
2023-01-28T07:23:07.687Z,59.84
2023-01-28T07:25:37.250Z,60.57
2023-01-28T07:28:06.963Z,59.31
2023-01-28T07:30:35.589Z,58.93
2023-01-28T07:33:04.267Z,60.25
2023-01-28T07:35:33.058Z,59.27
2023-01-28T07:38:03.059Z,61.37
2023-01-28T07:40:31.259Z,61.47
2023-01-28T07:42:59.791Z,59.35
2023-01-28T07:45:30.680Z,59.92
2023-01-28T07:48:00.577Z,60.43
2023-01-28T07:50:30.286Z,62.53
2023-01-28T07:52:59.507Z,60.14
2023-01-28T07:55:31.369Z,59.12
2023-01-28T07:58:01.415Z,59.36
2023-01-28T08:00:32.099Z,58.80
2023-01-28T08:03:02.277Z,59.89
2023-01-28T08:08:39.941Z,59.93
2023-01-28T08:11:11.741Z,61.38
2023-01-28T08:13:39.902Z,60.11
2023-01-28T08:16:09.363Z,59.80
2023-01-28T08:18:37.785Z,59.15
2023-01-28T08:21:06.586Z,57.43
2023-01-28T08:23:35.985Z,57.36
2023-01-28T08:26:04.228Z,56.66
2023-01-28T08:28:34.305Z,55.84
2023-01-28T08:31:03.287Z,56.50
2023-01-28T08:33:31.795Z,55.35
2023-01-28T08:36:00.164Z,56.38
2023-01-28T08:38:28.603Z,57.33
2023-01-28T08:40:59.205Z,57.57
2023-01-28T08:43:28.030Z,57.75
2023-01-28T08:45:57.605Z,57.84
2023-01-28T08:48:25.768Z,58.51
2023-01-28T08:50:54.348Z,57.20
2023-01-28T08:53:22.582Z,57.24
2023-01-28T08:55:51.117Z,57.09
2023-01-28T08:58:19.788Z,55.71
2023-01-28T09:00:49.951Z,55.09
2023-01-28T09:03:20.133Z,55.68
2023-01-28T09:05:49.681Z,56.94
2023-01-28T09:08:18.157Z,56.42
2023-01-28T09:10:46.848Z,56.06
2023-01-28T09:13:16.981Z,56.43
2023-01-28T09:15:45.718Z,54.29
2023-01-28T09:18:13.967Z,53.64
2023-01-28T09:20:43.780Z,55.35
2023-01-28T09:23:12.469Z,55.90
2023-01-28T09:25:40.854Z,54.63
2023-01-28T09:28:09.443Z,54.50
2023-01-28T09:30:39.875Z,53.86
2023-01-28T09:33:09.219Z,52.98
2023-01-28T09:35:37.954Z,54.47
2023-01-28T09:38:07.862Z,54.22
2023-01-28T09:40:39.617Z,54.67
2023-01-28T09:43:34.715Z,55.20
2023-01-28T09:46:06.258Z,55.72
2023-01-28T09:48:38.591Z,53.29
2023-01-28T09:51:11.860Z,52.84
2023-01-28T09:53:49.614Z,53.34
2023-01-28T09:56:27.824Z,54.31
2023-01-28T09:58:58.114Z,52.10
2023-01-28T10:01:40.952Z,54.61
2023-01-28T10:04:23.425Z,53.12
2023-01-28T10:07:08.297Z,51.37
2023-01-28T10:09:47.749Z,52.77
2023-01-28T10:12:30.618Z,52.97
2023-01-28T10:15:22.572Z,53.05
2023-01-28T10:18:03.894Z,52.85
2023-01-28T10:20:44.819Z,51.72
2023-01-28T10:23:19.501Z,52.27
2023-01-28T10:25:50.438Z,52.47
2023-01-28T10:28:23.186Z,51.70
2023-01-28T10:30:52.607Z,51.15
2023-01-28T10:33:25.075Z,52.59
2023-01-28T10:35:53.519Z,50.91
2023-01-28T10:38:24.658Z,49.59
2023-01-28T10:41:02.768Z,50.71
2023-01-28T10:43:33.956Z,50.46
2023-01-28T10:46:09.314Z,51.93
2023-01-28T10:48:43.361Z,51.43
2023-01-28T10:51:11.862Z,51.11
2023-01-28T10:53:41.800Z,49.66
2023-01-28T10:56:16.131Z,49.02
2023-01-28T10:59:00.053Z,48.75
2023-01-28T11:01:43.202Z,49.58
2023-01-28T11:04:23.517Z,49.23
2023-01-28T11:06:57.311Z,49.80
2023-01-28T11:09:29.713Z,49.14
2023-01-28T11:12:00.675Z,49.66
2023-01-28T11:14:29.631Z,48.01
2023-01-28T11:16:59.825Z,47.61
2023-01-28T11:19:35.493Z,50.09
2023-01-28T11:22:04.582Z,50.00
2023-01-28T11:24:35.460Z,47.70
2023-01-28T11:27:16.857Z,47.07
2023-01-28T11:29:46.319Z,46.68
2023-01-28T11:32:20.306Z,46.04
2023-01-28T11:34:54.259Z,47.83
2023-01-28T11:37:24.500Z,48.89
2023-01-28T11:40:03.591Z,49.07
2023-01-28T11:42:34.274Z,50.27
2023-01-28T11:45:02.905Z,51.84
2023-01-28T11:47:58.716Z,50.84
2023-01-28T11:50:38.864Z,51.24
2023-01-28T11:53:27.106Z,49.87
2023-01-28T11:56:10.229Z,48.68
2023-01-28T11:58:53.028Z,50.36
2023-01-28T12:01:26.417Z,48.02
2023-01-28T12:04:23.275Z,48.79
2023-01-28T12:07:13.040Z,48.50
2023-01-28T12:09:53.207Z,46.94
2023-01-28T12:12:49.492Z,47.07
2023-01-28T12:16:02.810Z,48.18
2023-01-28T12:19:09.018Z,47.85
2023-01-28T12:21:47.750Z,47.99
2023-01-28T12:24:27.552Z,47.78
2023-01-28T12:27:04.707Z,49.42
2023-01-28T12:29:40.559Z,49.61
2023-01-28T12:32:25.119Z,49.36
2023-01-28T12:35:17.599Z,49.39
2023-01-28T12:38:00.235Z,49.75
2023-01-28T12:40:59.144Z,49.60
2023-01-28T12:43:40.540Z,48.38
2023-01-28T12:46:18.798Z,49.59
2023-01-28T12:48:51.137Z,49.77
2023-01-28T12:51:25.411Z,48.71
2023-01-28T12:53:58.107Z,48.11
2023-01-28T12:56:31.292Z,50.48
2023-01-28T12:59:03.931Z,49.36
2023-01-28T13:01:39.128Z,46.92
2023-01-28T13:04:14.038Z,47.98
2023-01-28T13:06:48.538Z,48.59
2023-01-28T13:09:20.305Z,48.15
2023-01-28T13:11:51.096Z,47.97
2023-01-28T13:14:22.130Z,47.46
2023-01-28T13:16:50.385Z,46.83
2023-01-28T13:19:27.248Z,47.62
2023-01-28T13:21:56.705Z,49.43
2023-01-28T13:24:33.980Z,49.99
2023-01-28T13:27:14.372Z,50.03
2023-01-28T13:29:44.297Z,49.91
2023-01-28T13:32:34.976Z,48.85
2023-01-28T13:35:07.501Z,47.89
2023-01-28T13:37:40.960Z,48.61
2023-01-28T13:40:25.331Z,49.11
2023-01-28T13:43:02.353Z,48.43
2023-01-28T13:45:32.256Z,48.29
2023-01-28T13:48:23.931Z,51.74
2023-01-28T13:50:54.729Z,50.69
2023-01-28T13:53:36.774Z,51.46
2023-01-28T13:56:11.630Z,50.40
2023-01-28T13:59:14.044Z,51.47
2023-01-28T14:02:02.342Z,50.09
2023-01-28T14:04:45.299Z,48.65
2023-01-28T14:07:43.225Z,48.89
2023-01-28T14:10:28.614Z,49.36
2023-01-28T14:13:14.036Z,49.57
2023-01-28T14:15:57.501Z,49.01
2023-01-28T14:18:29.795Z,49.92
2023-01-28T14:21:02.779Z,50.05
2023-01-28T14:23:32.978Z,49.61
2023-01-28T14:26:16.191Z,48.50
2023-01-28T14:28:53.701Z,50.92
2023-01-28T14:31:28.154Z,49.54
2023-01-28T14:34:00.186Z,50.83
2023-01-28T14:36:29.569Z,49.67
2023-01-28T14:38:58.621Z,52.25
2023-01-28T14:41:29.774Z,52.70
2023-01-28T14:43:59.063Z,50.59
2023-01-28T14:46:36.409Z,50.43
2023-01-28T14:49:21.610Z,48.70
2023-01-28T14:52:13.095Z,48.04
2023-01-28T14:54:53.726Z,49.44
2023-01-28T14:57:53.682Z,49.02
2023-01-28T15:00:24.619Z,48.68
2023-01-28T15:02:52.949Z,48.33
2023-01-28T15:05:24.050Z,48.42
2023-01-28T15:07:52.945Z,51.16
2023-01-28T15:10:22.693Z,50.54
2023-01-28T15:12:57.690Z,49.35
2023-01-28T15:15:30.678Z,49.48
2023-01-28T15:18:04.070Z,48.40
2023-01-28T15:20:33.442Z,48.20
2023-01-28T15:23:03.279Z,48.54
2023-01-28T15:25:32.055Z,48.84
2023-01-28T15:28:03.389Z,49.51
2023-01-28T15:30:33.732Z,48.22
2023-01-28T15:33:04.958Z,48.35
2023-01-28T15:35:34.469Z,49.55
2023-01-28T15:38:05.409Z,49.82
2023-01-28T15:40:43.707Z,49.27
2023-01-28T15:43:21.060Z,49.45
2023-01-28T15:45:52.242Z,49.08
2023-01-28T15:48:20.766Z,48.65
2023-01-28T15:50:49.204Z,49.76
2023-01-28T15:53:18.009Z,48.71
2023-01-28T15:55:46.805Z,49.37
2023-01-28T15:58:21.202Z,51.28
2023-01-28T16:00:50.873Z,50.45
2023-01-28T16:03:22.025Z,49.89
2023-01-28T16:06:00.626Z,49.57
2023-01-28T16:08:33.910Z,48.06
2023-01-28T16:11:02.649Z,49.17
2023-01-28T16:13:34.746Z,48.06
2023-01-28T16:16:06.037Z,47.48
2023-01-28T16:18:41.169Z,47.97
2023-01-28T16:21:12.721Z,48.41
2023-01-28T16:23:41.362Z,47.52
2023-01-28T16:26:23.224Z,47.73
2023-01-28T16:28:53.415Z,47.47
2023-01-28T16:31:22.013Z,47.15
2023-01-28T16:33:50.813Z,47.61
2023-01-28T16:36:20.113Z,47.27
2023-01-28T16:38:48.578Z,47.37
2023-01-28T16:41:25.378Z,47.16
2023-01-28T16:43:55.432Z,47.45
2023-01-28T16:46:23.614Z,48.45
2023-01-28T16:48:52.162Z,47.38
2023-01-28T16:51:21.362Z,46.85
2023-01-28T16:53:51.373Z,48.38
2023-01-28T16:56:44.516Z,47.93
2023-01-28T16:59:13.865Z,48.04
2023-01-28T17:01:42.626Z,47.92
2023-01-28T17:04:12.943Z,46.48
2023-01-28T17:06:44.590Z,47.43
2023-01-28T17:09:14.835Z,48.83
2023-01-28T17:11:43.998Z,48.93
2023-01-28T17:14:13.724Z,48.62
2023-01-28T17:16:42.112Z,49.46
2023-01-28T17:19:10.566Z,48.94
2023-01-28T17:21:39.245Z,48.60
2023-01-28T17:24:08.811Z,48.58
2023-01-28T17:26:38.315Z,48.62
2023-01-28T17:29:07.447Z,48.13
2023-01-28T17:31:37.497Z,48.65
2023-01-28T17:34:07.307Z,47.34
2023-01-28T17:36:36.023Z,46.40
2023-01-28T17:39:06.133Z,48.06
2023-01-28T17:41:34.915Z,47.45
2023-01-28T17:44:04.847Z,46.41
2023-01-28T17:46:33.498Z,45.60
2023-01-28T17:49:04.702Z,46.39
2023-01-28T17:51:33.226Z,46.63
2023-01-28T17:54:01.739Z,46.19
2023-01-28T17:56:31.497Z,46.37
2023-01-28T17:59:02.684Z,46.79
2023-01-28T18:01:32.547Z,46.92
2023-01-28T18:04:01.390Z,48.41
2023-01-28T18:06:32.995Z,48.76
2023-01-28T18:09:03.039Z,48.49
2023-01-28T18:11:33.327Z,48.97
2023-01-28T18:14:02.146Z,49.04
2023-01-28T18:16:30.531Z,48.94
2023-01-28T18:18:58.778Z,49.19
2023-01-28T18:21:51.362Z,49.38
2023-01-28T18:24:21.708Z,48.45
2023-01-28T18:26:50.915Z,47.43
2023-01-28T18:29:20.968Z,47.34
2023-01-28T18:31:50.438Z,48.15
2023-01-28T18:34:19.331Z,47.65
2023-01-28T18:36:49.756Z,47.72
2023-01-28T18:39:19.130Z,47.92
2023-01-28T18:41:47.981Z,48.00
2023-01-28T18:44:17.078Z,47.98
2023-01-28T18:46:45.655Z,48.07
2023-01-28T18:49:14.540Z,48.15
2023-01-28T18:51:44.012Z,48.21
2023-01-28T18:54:16.028Z,48.33
2023-01-28T18:56:44.729Z,46.74
2023-01-28T18:59:14.312Z,47.10
2023-01-28T19:01:43.942Z,47.02
2023-01-28T19:04:12.554Z,48.54
2023-01-28T19:06:40.865Z,48.50
2023-01-28T19:09:12.492Z,49.29
2023-01-28T19:11:43.013Z,50.05
2023-01-28T19:14:14.189Z,48.79
2023-01-28T19:16:42.631Z,49.90
2023-01-28T19:19:11.143Z,48.93
2023-01-28T19:21:39.633Z,49.10
2023-01-28T19:24:10.243Z,51.02
2023-01-28T19:26:39.143Z,49.18
2023-01-28T19:29:10.697Z,50.33
2023-01-28T19:31:40.257Z,51.08
2023-01-28T19:34:08.926Z,50.47
2023-01-28T19:36:37.441Z,49.72
2023-01-28T19:39:08.613Z,49.38
2023-01-28T19:41:37.792Z,49.49
2023-01-28T19:44:06.639Z,49.48
2023-01-28T19:46:37.623Z,49.33
2023-01-28T19:49:06.099Z,49.51
2023-01-28T19:51:34.578Z,49.59
2023-01-28T19:54:03.411Z,49.63
2023-01-28T19:56:36.224Z,49.31
2023-01-28T19:59:05.247Z,49.22
2023-01-28T20:01:33.850Z,49.51
2023-01-28T20:04:04.939Z,49.50
2023-01-28T20:06:33.961Z,49.23
2023-01-28T20:09:04.173Z,49.06
2023-01-28T20:11:32.769Z,49.75
2023-01-28T20:14:01.212Z,49.70
2023-01-28T20:16:31.290Z,48.09
2023-01-28T20:19:01.301Z,49.82
2023-01-28T20:21:32.057Z,49.73
2023-01-28T20:24:02.349Z,48.38
2023-01-28T20:26:33.247Z,48.86
2023-01-28T20:29:02.374Z,48.35
2023-01-28T20:31:30.736Z,48.34
2023-01-28T20:33:59.149Z,48.05
2023-01-28T20:36:27.423Z,48.98
2023-01-28T20:38:57.353Z,48.82
2023-01-28T20:41:27.131Z,48.02
2023-01-28T20:43:56.180Z,47.79
2023-01-28T20:46:27.883Z,48.73
2023-01-28T20:48:57.513Z,49.21
2023-01-28T20:51:28.223Z,49.22
2023-01-28T20:53:59.257Z,49.06
2023-01-28T20:56:30.010Z,48.85
2023-01-28T20:59:00.412Z,49.16
2023-01-28T21:01:31.997Z,49.70
2023-01-28T21:04:01.067Z,48.79
2023-01-28T21:06:29.941Z,48.12
2023-01-28T21:08:59.644Z,49.15
2023-01-28T21:11:28.653Z,49.32
2023-01-28T21:13:57.550Z,49.56
2023-01-28T21:16:26.194Z,49.05
2023-01-28T21:18:54.741Z,49.74
2023-01-28T21:21:25.429Z,49.82
2023-01-28T21:23:54.918Z,50.50
2023-01-28T21:26:24.662Z,49.66
2023-01-28T21:28:53.327Z,50.78
2023-01-28T21:31:23.562Z,49.47
2023-01-28T21:33:55.345Z,49.57
2023-01-28T21:36:25.026Z,48.71
2023-01-28T21:38:54.075Z,49.27
2023-01-28T21:41:22.940Z,48.90
2023-01-28T21:43:53.861Z,48.90
2023-01-28T21:46:23.272Z,49.12
2023-01-28T21:48:54.997Z,49.25
2023-01-28T21:51:45.968Z,49.28
2023-01-28T21:54:16.353Z,48.32
2023-01-28T21:56:45.380Z,48.13
2023-01-28T21:59:32.843Z,48.21
2023-01-28T22:02:02.771Z,48.98
2023-01-28T22:04:32.682Z,49.34
2023-01-28T22:07:01.488Z,49.17
2023-01-28T22:09:30.566Z,48.78
2023-01-28T22:11:58.910Z,49.15
2023-01-28T22:14:28.788Z,48.82
2023-01-28T22:16:57.179Z,49.50
2023-01-28T22:19:25.410Z,49.39
2023-01-28T22:21:53.845Z,49.29
2023-01-28T22:24:24.810Z,48.87
2023-01-28T22:26:55.048Z,51.01
2023-01-28T22:29:24.497Z,49.92
2023-01-28T22:31:55.585Z,50.03
2023-01-28T22:34:24.777Z,49.73
2023-01-28T22:36:52.738Z,50.00
2023-01-28T22:39:21.022Z,49.34
2023-01-28T22:41:49.203Z,49.77
2023-01-28T22:44:19.928Z,49.71
2023-01-28T22:46:48.899Z,50.03
2023-01-28T22:49:19.331Z,50.57
2023-01-28T22:51:47.422Z,49.21
2023-01-28T22:54:16.126Z,50.60
2023-01-28T22:56:44.499Z,51.37
2023-01-28T22:59:12.927Z,51.77
2023-01-28T23:01:41.799Z,50.57
2023-01-28T23:04:09.977Z,50.04
2023-01-28T23:06:39.728Z,49.52
2023-01-28T23:09:08.139Z,50.29
2023-01-28T23:11:36.485Z,51.18
2023-01-28T23:14:22.847Z,51.36
2023-01-28T23:17:09.445Z,51.51
2023-01-28T23:19:55.179Z,51.20
2023-01-28T23:22:45.681Z,52.20
2023-01-28T23:25:14.305Z,52.23
2023-01-28T23:27:42.733Z,51.91
2023-01-28T23:30:12.636Z,52.72
2023-01-28T23:32:45.011Z,52.56
2023-01-28T23:35:13.749Z,52.54
2023-01-28T23:37:43.538Z,52.85
2023-01-28T23:40:14.086Z,53.54
2023-01-28T23:42:42.730Z,53.38
2023-01-28T23:45:11.907Z,52.52
2023-01-28T23:47:40.257Z,52.07
2023-01-28T23:50:09.922Z,52.97
2023-01-28T23:52:37.991Z,52.60
2023-01-28T23:55:09.394Z,52.19
2023-01-28T23:57:38.148Z,52.05
